createdAt,value
2018-12-01T00:04:53.809Z,83309.00
2018-12-01T00:09:57.672Z,83306.00
2018-12-01T00:15:01.480Z,83308.00
2018-12-01T00:20:08.344Z,83302.00
2018-12-01T00:25:12.165Z,83304.00
2018-12-01T00:30:17.008Z,83301.00
2018-12-01T00:35:21.208Z,83291.00
2018-12-01T00:40:25.047Z,83278.00
2018-12-01T00:45:28.869Z,83259.00
2018-12-01T00:50:32.684Z,83247.00
2018-12-01T00:55:36.802Z,83239.00
2018-12-01T01:00:40.654Z,83229.00
2018-12-01T01:05:44.484Z,83215.00
2018-12-01T01:10:48.330Z,83209.00
2018-12-01T01:15:52.168Z,83198.00
2018-12-01T01:20:56.242Z,83199.00
2018-12-01T01:26:00.061Z,83197.00
2018-12-01T01:31:03.887Z,83181.00
2018-12-01T01:36:07.832Z,83182.00
2018-12-01T01:41:11.623Z,83178.00
2018-12-01T01:46:15.425Z,83175.00
2018-12-01T01:51:19.247Z,83176.00
2018-12-01T01:56:23.081Z,83174.00
2018-12-01T02:01:27.181Z,83169.00
2018-12-01T02:06:30.984Z,83178.00
2018-12-01T02:11:35.078Z,83178.00
2018-12-01T02:16:38.938Z,83168.00
2018-12-01T02:21:43.114Z,83161.00
2018-12-01T02:26:46.981Z,83170.00
2018-12-01T02:31:51.082Z,83163.00
2018-12-01T02:36:54.995Z,83155.00
2018-12-01T02:41:58.810Z,83159.00
2018-12-01T02:47:12.288Z,83155.00
2018-12-01T02:52:16.091Z,83155.00
2018-12-01T02:57:20.200Z,83153.00
2018-12-01T03:02:25.385Z,83137.00
2018-12-01T03:07:29.239Z,83129.00
2018-12-01T03:12:33.300Z,83124.00
2018-12-01T03:17:37.161Z,83118.00
2018-12-01T03:22:41.049Z,83120.00
2018-12-01T03:27:44.963Z,83106.00
2018-12-01T03:32:49.363Z,83097.00
2018-12-01T03:37:53.484Z,83100.00
2018-12-01T03:42:57.560Z,83097.00
2018-12-01T03:48:01.410Z,83098.00
2018-12-01T03:53:05.843Z,83098.00
2018-12-01T03:58:09.680Z,83097.00
2018-12-01T04:03:13.468Z,83097.00
2018-12-01T04:08:17.524Z,83096.00
2018-12-01T04:13:21.596Z,83097.00
2018-12-01T04:18:25.424Z,83097.00
2018-12-01T04:23:29.233Z,83095.00
2018-12-01T04:28:33.273Z,83098.00
2018-12-01T04:33:37.152Z,83093.00
2018-12-01T04:38:41.011Z,83083.00
2018-12-01T04:43:45.065Z,83077.00
2018-12-01T04:48:49.163Z,83066.00
2018-12-01T04:53:53.037Z,83059.00
2018-12-01T04:58:56.897Z,83054.00
2018-12-01T05:04:01.069Z,83059.00
2018-12-01T05:09:08.060Z,83066.00
2018-12-01T05:14:11.887Z,83088.00
2018-12-01T05:19:15.970Z,83102.00
2018-12-01T05:24:20.089Z,83106.00
2018-12-01T05:29:24.183Z,83113.00
2018-12-01T05:34:28.019Z,83113.00
2018-12-01T05:39:31.848Z,83118.00
2018-12-01T05:44:35.698Z,83115.00
2018-12-01T05:49:39.603Z,83105.00
2018-12-01T05:54:43.483Z,83098.00
2018-12-01T05:59:47.584Z,83105.00
2018-12-01T06:04:51.477Z,83096.00
2018-12-01T06:09:55.311Z,83091.00
2018-12-01T06:14:59.147Z,83091.00
2018-12-01T06:20:03.529Z,83089.00
2018-12-01T06:25:10.850Z,83090.00
2018-12-01T06:30:17.435Z,83088.00
2018-12-01T06:35:21.468Z,83088.00
2018-12-01T06:40:25.299Z,83093.00
2018-12-01T06:45:29.110Z,83092.00
2018-12-01T06:50:33.158Z,83097.00
2018-12-01T06:55:36.992Z,83101.00
2018-12-01T07:00:40.823Z,83099.00
2018-12-01T07:05:45.227Z,83098.00
2018-12-01T07:10:49.439Z,83100.00
2018-12-01T07:15:53.576Z,83103.00
2018-12-01T07:20:57.480Z,83103.00
2018-12-01T07:26:01.279Z,83107.00
2018-12-01T07:31:05.189Z,83116.00
2018-12-01T07:36:09.256Z,83127.00
2018-12-01T07:41:13.059Z,83137.00
2018-12-01T07:46:16.879Z,83129.00
2018-12-01T07:51:20.710Z,83117.00
2018-12-01T07:56:24.803Z,83090.00
2018-12-01T08:01:28.624Z,83065.00
2018-12-01T08:06:32.459Z,83048.00
2018-12-01T08:11:36.546Z,83066.00
2018-12-01T08:16:40.604Z,83057.00
2018-12-01T08:21:44.433Z,83068.00
2018-12-01T08:26:48.468Z,83077.00
2018-12-01T08:31:52.352Z,83086.00
2018-12-01T08:36:56.407Z,83088.00
2018-12-01T08:42:00.271Z,83100.00
2018-12-01T08:47:04.235Z,83118.00
2018-12-01T08:52:08.081Z,83126.00
2018-12-01T08:57:11.931Z,83143.00
2018-12-01T09:02:16.000Z,83168.00
2018-12-01T09:07:19.835Z,83205.00
2018-12-01T09:12:23.708Z,83242.00
2018-12-01T09:17:27.781Z,83262.00
2018-12-01T09:22:31.871Z,83282.00
2018-12-01T09:27:35.727Z,83305.00
2018-12-01T09:32:39.695Z,83309.00
2018-12-01T09:37:43.756Z,83313.00
2018-12-01T09:42:47.722Z,83316.00
2018-12-01T09:47:53.284Z,83334.00
2018-12-01T09:52:58.066Z,83351.00
2018-12-01T09:58:01.884Z,83363.00
2018-12-01T10:03:07.352Z,83371.00
2018-12-01T10:08:11.441Z,83389.00
2018-12-01T10:13:15.584Z,83419.00
2018-12-01T10:18:19.420Z,83448.00
2018-12-01T10:23:23.516Z,83460.00
2018-12-01T10:28:27.615Z,83469.00
2018-12-01T10:33:31.487Z,83485.00
2018-12-01T10:38:35.575Z,83500.00
2018-12-01T10:43:39.498Z,83502.00
2018-12-01T10:48:43.291Z,83483.00
2018-12-01T10:53:47.097Z,83481.00
2018-12-01T10:58:51.198Z,83478.00
2018-12-01T11:03:55.246Z,83479.00
2018-12-01T11:08:59.052Z,83491.00
2018-12-01T11:14:02.939Z,83505.00
2018-12-01T11:19:07.018Z,83512.00
2018-12-01T11:24:11.056Z,83515.00
2018-12-01T11:29:14.890Z,83520.00
2018-12-01T11:34:18.940Z,83515.00
2018-12-01T11:39:23.036Z,83513.00
2018-12-01T11:44:26.883Z,83530.00
2018-12-01T11:49:30.957Z,83540.00
2018-12-01T11:54:34.797Z,83533.00
2018-12-01T11:59:38.652Z,83518.00
2018-12-01T12:04:42.800Z,83517.00
2018-12-01T12:09:46.616Z,83507.00
2018-12-01T12:14:52.076Z,83518.00
2018-12-01T12:19:54.832Z,83522.00
2018-12-01T12:24:58.645Z,83549.00
2018-12-01T12:30:02.488Z,83586.00
2018-12-01T12:35:06.971Z,83587.00
2018-12-01T12:40:15.948Z,83600.00
2018-12-01T12:45:19.796Z,83597.00
2018-12-01T12:50:23.643Z,83589.00
2018-12-01T12:55:28.404Z,83583.00
2018-12-01T13:00:32.456Z,83575.00
2018-12-01T13:05:38.964Z,83568.00
2018-12-01T13:10:42.755Z,83560.00
2018-12-01T13:15:46.566Z,83550.00
2018-12-01T13:20:51.362Z,83541.00
2018-12-01T13:25:55.480Z,83537.00
2018-12-01T13:31:01.015Z,83532.00
2018-12-01T13:36:05.223Z,83532.00
2018-12-01T13:41:09.055Z,83530.00
2018-12-01T13:46:12.879Z,83531.00
2018-12-01T13:51:16.771Z,83522.00
2018-12-01T13:56:35.112Z,83519.00
2018-12-01T14:01:38.954Z,83513.00
2018-12-01T14:06:42.764Z,83506.00
2018-12-01T14:11:46.795Z,83504.00
2018-12-01T14:16:50.618Z,83499.00
2018-12-01T14:21:54.438Z,83500.00
2018-12-01T14:26:58.240Z,83490.00
2018-12-01T14:32:02.046Z,83486.00
2018-12-01T14:37:06.171Z,83485.00
2018-12-01T14:42:09.979Z,83490.00
2018-12-01T14:47:13.803Z,83501.00
2018-12-01T14:52:17.616Z,83490.00
2018-12-01T14:57:22.644Z,83479.00
2018-12-01T15:02:25.275Z,83479.00
2018-12-01T15:07:29.074Z,83472.00
2018-12-01T15:12:32.886Z,83469.00
2018-12-01T15:17:36.753Z,83465.00
2018-12-01T15:22:40.588Z,83463.00
2018-12-01T15:27:44.495Z,83452.00
2018-12-01T15:32:54.022Z,83440.00
2018-12-01T15:37:57.842Z,83436.00
2018-12-01T15:43:01.648Z,83424.00
2018-12-01T15:48:05.962Z,83415.00
2018-12-01T15:53:11.259Z,83394.00
2018-12-01T15:58:15.272Z,83379.00
2018-12-01T16:03:19.086Z,83370.00
2018-12-01T16:08:23.034Z,83357.00
2018-12-01T16:13:27.732Z,83348.00
2018-12-01T16:18:31.517Z,83348.00
2018-12-01T16:23:35.307Z,83334.00
2018-12-01T16:28:39.106Z,83330.00
2018-12-01T16:33:42.922Z,83308.00
2018-12-01T16:38:46.933Z,83302.00
2018-12-01T16:43:50.774Z,83304.00
2018-12-01T16:48:54.575Z,83313.00
2018-12-01T16:53:59.229Z,83311.00
2018-12-01T16:59:03.018Z,83316.00
2018-12-01T17:04:06.839Z,83320.00
2018-12-01T17:09:10.871Z,83330.00
2018-12-01T17:14:14.676Z,83337.00
2018-12-01T17:19:18.703Z,83337.00
2018-12-01T17:24:22.728Z,83331.00
2018-12-01T17:29:26.528Z,83336.00
2018-12-01T17:34:30.410Z,83331.00
2018-12-01T17:39:34.226Z,83332.00
2018-12-01T17:44:38.090Z,83328.00
2018-12-01T17:49:41.892Z,83326.00
2018-12-01T17:54:45.682Z,83323.00
2018-12-01T17:59:49.740Z,83318.00
2018-12-01T18:04:53.553Z,83318.00
2018-12-01T18:09:57.575Z,83303.00
2018-12-01T18:15:01.371Z,83302.00
2018-12-01T18:20:10.391Z,83301.00
2018-12-01T18:25:14.454Z,83299.00
2018-12-01T18:30:28.592Z,83301.00
2018-12-01T18:35:32.728Z,83305.00
2018-12-01T18:40:36.612Z,83309.00
2018-12-01T18:45:44.507Z,83310.00
2018-12-01T18:50:48.335Z,83283.00
2018-12-01T18:55:53.921Z,83324.00
2018-12-01T19:00:57.998Z,83331.00
2018-12-01T19:06:01.894Z,83337.00
2018-12-01T19:11:07.168Z,83343.00
2018-12-01T19:16:10.958Z,83346.00
2018-12-01T19:21:14.760Z,83350.00
2018-12-01T19:26:18.577Z,83354.00
2018-12-01T19:31:22.638Z,83354.00
2018-12-01T19:36:26.460Z,83359.00
2018-12-01T19:41:30.490Z,83366.00
2018-12-01T19:46:34.294Z,83370.00
2018-12-01T19:51:38.327Z,83380.00
2018-12-01T19:56:42.143Z,83380.00
2018-12-01T20:01:45.934Z,83382.00
2018-12-01T20:06:49.766Z,83386.00
2018-12-01T20:11:54.273Z,83392.00
2018-12-01T20:16:58.062Z,83389.00
2018-12-01T20:22:01.881Z,83393.00
2018-12-01T20:27:06.507Z,83392.00
2018-12-01T20:32:10.321Z,83396.00
2018-12-01T20:37:17.274Z,83396.00
2018-12-01T20:42:21.126Z,83395.00
2018-12-01T20:47:24.915Z,83395.00
2018-12-01T20:52:28.714Z,83395.00
2018-12-01T20:57:32.532Z,83396.00
2018-12-01T21:02:36.710Z,83395.00
2018-12-01T21:07:41.890Z,83399.00
2018-12-01T21:12:45.690Z,83399.00
2018-12-01T21:17:49.515Z,83396.00
2018-12-01T21:22:53.567Z,83395.00
2018-12-01T21:27:59.011Z,83399.00
2018-12-01T21:33:07.503Z,83395.00
2018-12-01T21:38:13.616Z,83403.00
2018-12-01T21:43:17.646Z,83405.00
2018-12-01T21:48:21.454Z,83407.00
2018-12-01T21:53:26.006Z,83408.00
2018-12-01T21:58:29.795Z,83409.00
2018-12-01T22:03:33.681Z,83408.00
2018-12-01T22:08:37.995Z,83415.00
2018-12-01T22:13:41.820Z,83420.00
2018-12-01T22:18:45.623Z,83424.00
2018-12-01T22:23:49.646Z,83430.00
2018-12-01T22:28:53.443Z,83432.00
2018-12-01T22:33:57.222Z,83436.00
2018-12-01T22:39:01.048Z,83437.00
2018-12-01T22:44:04.918Z,83441.00
2018-12-01T22:49:08.985Z,83443.00
2018-12-01T22:54:13.679Z,83445.00
2018-12-01T22:59:17.472Z,83450.00
2018-12-01T23:04:21.291Z,83451.00
2018-12-01T23:09:25.185Z,83454.00
2018-12-01T23:14:28.982Z,83459.00
2018-12-01T23:19:32.770Z,83458.00
2018-12-01T23:24:36.562Z,83457.00
2018-12-01T23:29:40.605Z,83461.00
2018-12-01T23:34:44.637Z,83460.00
2018-12-01T23:39:48.435Z,83459.00
2018-12-01T23:44:52.495Z,83462.00
2018-12-01T23:49:56.332Z,83461.00
2018-12-01T23:55:00.363Z,83464.00
